createdAt,value
2018-03-23T00:02:03.436Z,100813.30
2018-03-23T00:04:32.551Z,100818.54
2018-03-23T00:07:00.877Z,100817.83
2018-03-23T00:09:29.317Z,100821.17
2018-03-23T00:11:57.862Z,100819.45
2018-03-23T00:14:26.317Z,100820.73
2018-03-23T00:16:54.646Z,100819.92
2018-03-23T00:19:23.004Z,100813.21
2018-03-23T00:21:51.314Z,100814.18
2018-03-23T00:24:19.617Z,100814.30
2018-03-23T00:26:47.955Z,100815.04
2018-03-23T00:29:17.086Z,100821.13
2018-03-23T00:31:45.462Z,100819.01
2018-03-23T00:34:14.293Z,100814.13
2018-03-23T00:36:42.660Z,100810.95
2018-03-23T00:39:11.004Z,100811.02
2018-03-23T00:41:39.349Z,100813.22
2018-03-23T00:44:07.677Z,100813.01
2018-03-23T00:46:36.009Z,100807.48
2018-03-23T00:49:05.102Z,100801.30
2018-03-23T00:51:34.205Z,100809.13
2018-03-23T00:54:03.293Z,100815.75
2018-03-23T00:56:32.692Z,100814.62
2018-03-23T00:59:01.026Z,100814.17
2018-03-23T01:01:29.370Z,100820.27
2018-03-23T01:03:58.035Z,100818.41
2018-03-23T01:06:27.524Z,100813.59
2018-03-23T01:08:55.837Z,100807.89
2018-03-23T01:11:25.096Z,100811.09
2018-03-23T01:13:53.876Z,100813.58
2018-03-23T01:16:22.295Z,100815.56
2018-03-23T01:18:51.885Z,100815.86
2018-03-23T01:21:20.276Z,100813.16
2018-03-23T01:23:48.613Z,100814.43
2018-03-23T01:26:16.953Z,100804.58
2018-03-23T01:28:45.281Z,100804.44
2018-03-23T01:31:13.624Z,100805.78
2018-03-23T01:33:42.030Z,100806.20
2018-03-23T01:36:10.380Z,100794.30
2018-03-23T01:38:38.705Z,100798.70
2018-03-23T01:41:07.253Z,100797.14
2018-03-23T01:43:35.561Z,100797.42
2018-03-23T01:46:03.888Z,100806.22
2018-03-23T01:48:32.258Z,100803.95
2018-03-23T01:51:01.355Z,100794.88
2018-03-23T01:53:43.413Z,100800.19
2018-03-23T01:56:11.772Z,100787.92
2018-03-23T01:58:40.856Z,100790.69
2018-03-23T02:01:09.433Z,100782.11
2018-03-23T02:03:37.775Z,100788.28
2018-03-23T02:06:06.877Z,100796.85
2018-03-23T02:08:35.468Z,100791.53
2018-03-23T02:11:04.568Z,100797.72
2018-03-23T02:13:32.983Z,100793.53
2018-03-23T02:16:01.302Z,100792.83
2018-03-23T02:18:30.392Z,100788.38
2018-03-23T02:20:58.722Z,100794.17
2018-03-23T02:23:27.469Z,100787.30
2018-03-23T02:25:55.775Z,100787.86
2018-03-23T02:28:24.114Z,100784.58
2018-03-23T02:30:52.472Z,100789.78
2018-03-23T02:33:20.819Z,100781.92
2018-03-23T02:35:49.150Z,100781.47
2018-03-23T02:38:17.503Z,100780.98
2018-03-23T02:40:45.815Z,100778.71
2018-03-23T02:43:14.164Z,100772.78
2018-03-23T02:45:42.705Z,100781.00
2018-03-23T02:48:11.013Z,100772.52
2018-03-23T02:50:39.347Z,100779.70
2018-03-23T02:53:08.492Z,100767.27
2018-03-23T02:55:36.832Z,100772.63
2018-03-23T02:58:05.893Z,100768.71
2018-03-23T03:00:34.256Z,100769.66
2018-03-23T03:03:02.572Z,100770.23
2018-03-23T03:05:30.944Z,100773.13
2018-03-23T03:08:00.236Z,100766.63
2018-03-23T03:10:29.033Z,100767.16
2018-03-23T03:12:57.572Z,100774.91
2018-03-23T03:15:25.945Z,100772.52
2018-03-23T03:17:54.266Z,100766.46
2018-03-23T03:20:22.597Z,100769.81
2018-03-23T03:22:50.988Z,100765.85
2018-03-23T03:25:19.326Z,100760.02
2018-03-23T03:27:47.659Z,100757.73
2018-03-23T03:30:16.537Z,100749.09
2018-03-23T03:32:45.640Z,100753.80
2018-03-23T03:35:13.960Z,100747.50
2018-03-23T03:37:43.085Z,100743.95
2018-03-23T03:40:11.402Z,100744.12
2018-03-23T03:42:39.708Z,100744.78
2018-03-23T03:45:08.055Z,100745.98
2018-03-23T03:47:36.368Z,100737.77
2018-03-23T03:50:05.519Z,100742.95
2018-03-23T03:52:34.245Z,100751.71
2018-03-23T03:55:02.578Z,100742.59
2018-03-23T03:57:30.902Z,100741.63
2018-03-23T03:59:59.270Z,100738.45
2018-03-23T04:02:27.591Z,100736.44
2018-03-23T04:04:55.908Z,100730.98
2018-03-23T04:07:24.244Z,100731.38
2018-03-23T04:09:52.551Z,100726.02
2018-03-23T04:12:20.922Z,100723.71
2018-03-23T04:14:49.763Z,100722.58
2018-03-23T04:17:18.068Z,100727.52
2018-03-23T04:19:46.385Z,100721.98
2018-03-23T04:22:14.748Z,100712.76
2018-03-23T04:24:43.066Z,100717.64
2018-03-23T04:27:11.381Z,100714.72
2018-03-23T04:29:39.752Z,100708.30
2018-03-23T04:32:08.092Z,100717.45
2018-03-23T04:34:36.433Z,100713.20
2018-03-23T04:37:04.908Z,100712.80
2018-03-23T04:39:33.263Z,100704.10
2018-03-23T04:42:02.382Z,100708.64
2018-03-23T04:44:30.735Z,100706.27
2018-03-23T04:46:59.836Z,100698.09
2018-03-23T04:49:28.143Z,100696.55
2018-03-23T04:51:56.501Z,100702.77
2018-03-23T04:54:25.581Z,100701.02
2018-03-23T04:56:53.882Z,100698.28
2018-03-23T04:59:22.636Z,100692.13
2018-03-23T05:01:50.995Z,100694.22
2018-03-23T05:04:19.360Z,100694.69
2018-03-23T05:06:47.737Z,100701.36
2018-03-23T05:09:16.814Z,100695.88
2018-03-23T05:11:45.558Z,100697.89
2018-03-23T05:14:13.881Z,100696.20
2018-03-23T05:16:42.212Z,100695.80
2018-03-23T05:19:10.537Z,100701.87
2018-03-23T05:21:38.955Z,100700.51
2018-03-23T05:24:07.280Z,100702.23
2018-03-23T05:26:35.628Z,100701.37
2018-03-23T05:29:03.988Z,100711.10
2018-03-23T05:31:32.594Z,100704.33
2018-03-23T05:34:00.927Z,100705.52
2018-03-23T05:36:29.296Z,100700.06
2018-03-23T05:38:57.617Z,100695.41
2018-03-23T05:41:25.942Z,100699.42
2018-03-23T05:43:54.349Z,100703.68
2018-03-23T05:46:22.708Z,100703.52
2018-03-23T05:48:51.032Z,100699.55
2018-03-23T05:51:19.384Z,100694.06
2018-03-23T05:53:47.696Z,100696.98
2018-03-23T05:56:16.037Z,100701.56
2018-03-23T05:58:44.659Z,100705.63
2018-03-23T06:01:13.020Z,100706.04
2018-03-23T06:03:41.326Z,100702.28
2018-03-23T06:06:10.040Z,100707.41
2018-03-23T06:08:38.373Z,100699.05
2018-03-23T06:11:06.686Z,100700.23
2018-03-23T06:13:36.025Z,100702.10
2018-03-23T06:16:04.365Z,100702.53
2018-03-23T06:18:33.456Z,100705.69
2018-03-23T06:21:02.561Z,100705.27
2018-03-23T06:23:30.898Z,100710.23
2018-03-23T06:25:59.308Z,100712.85
2018-03-23T06:28:27.836Z,100703.91
2018-03-23T06:30:56.188Z,100703.86
2018-03-23T06:33:24.536Z,100710.99
2018-03-23T06:35:52.923Z,100707.55
2018-03-23T06:38:22.071Z,100711.95
2018-03-23T06:40:50.424Z,100705.66
2018-03-23T06:43:18.800Z,100705.79
2018-03-23T06:45:47.135Z,100703.44
2018-03-23T06:48:15.470Z,100696.02
2018-03-23T06:50:44.104Z,100704.24
2018-03-23T06:53:12.441Z,100705.02
2018-03-23T06:55:40.825Z,100700.47
2018-03-23T06:58:09.198Z,100686.84
2018-03-23T07:00:37.531Z,100691.81
2018-03-23T07:03:05.862Z,100693.63
2018-03-23T07:05:34.287Z,100687.08
2018-03-23T07:08:03.387Z,100692.86
2018-03-23T07:10:31.715Z,100689.07
2018-03-23T07:13:00.311Z,100687.41
2018-03-23T07:15:29.038Z,100687.19
2018-03-23T07:17:58.105Z,100684.87
2018-03-23T07:20:26.426Z,100686.91
2018-03-23T07:22:55.503Z,100688.26
2018-03-23T07:25:23.807Z,100686.11
2018-03-23T07:27:52.162Z,100682.99
2018-03-23T07:30:20.460Z,100680.87
2018-03-23T07:32:48.828Z,100680.87
2018-03-23T07:35:18.209Z,100681.47
2018-03-23T07:37:46.561Z,100678.97
2018-03-23T07:40:14.879Z,100672.75
2018-03-23T07:42:43.240Z,100670.73
2018-03-23T07:45:11.591Z,100668.76
2018-03-23T07:47:39.956Z,100670.21
2018-03-23T07:50:08.320Z,100661.09
2018-03-23T07:52:37.440Z,100666.38
2018-03-23T07:55:05.763Z,100664.28
2018-03-23T07:57:34.270Z,100661.12
2018-03-23T08:00:03.353Z,100661.02
2018-03-23T08:02:31.697Z,100655.83
2018-03-23T08:05:00.059Z,100654.62
2018-03-23T08:07:28.393Z,100653.80
2018-03-23T08:09:57.494Z,100650.96
2018-03-23T08:12:26.583Z,100657.08
2018-03-23T08:14:55.760Z,100659.15
2018-03-23T08:17:24.117Z,100652.91
2018-03-23T08:19:52.868Z,100648.69
2018-03-23T08:22:21.939Z,100650.26
2018-03-23T08:24:50.325Z,100652.77
2018-03-23T08:27:18.709Z,100655.24
2018-03-23T08:29:47.815Z,100654.13
2018-03-23T08:32:16.896Z,100653.80
2018-03-23T08:34:45.995Z,100647.39
2018-03-23T08:37:15.083Z,100646.55
2018-03-23T08:39:44.154Z,100642.78
2018-03-23T08:42:12.546Z,100647.94
2018-03-23T08:44:40.896Z,100648.88
2018-03-23T08:47:09.209Z,100644.53
2018-03-23T08:49:37.566Z,100650.05
2018-03-23T08:52:05.887Z,100649.30
2018-03-23T08:54:34.984Z,100641.63
2018-03-23T08:57:04.129Z,100641.64
2018-03-23T08:59:32.465Z,100648.53
2018-03-23T09:02:02.317Z,100637.67
2018-03-23T09:04:30.976Z,100641.36
2018-03-23T09:06:59.342Z,100634.83
2018-03-23T09:09:28.425Z,100640.00
2018-03-23T09:11:57.539Z,100638.47
2018-03-23T09:14:25.836Z,100638.62
2018-03-23T09:16:54.184Z,100640.03
2018-03-23T09:19:23.695Z,100640.33
2018-03-23T09:21:52.062Z,100643.00
2018-03-23T09:24:20.503Z,100651.24
2018-03-23T09:26:49.146Z,100644.80
2018-03-23T09:29:17.482Z,100653.13
2018-03-23T09:31:45.809Z,100652.58
2018-03-23T09:34:14.199Z,100644.52
2018-03-23T09:36:42.559Z,100648.62
2018-03-23T09:39:10.882Z,100646.08
2018-03-23T09:41:39.205Z,100641.15
2018-03-23T09:44:08.327Z,100636.48
2018-03-23T09:46:37.453Z,100634.31
2018-03-23T09:49:06.294Z,100636.74
2018-03-23T09:51:34.618Z,100632.80
2018-03-23T09:54:02.913Z,100634.53
2018-03-23T09:56:31.369Z,100637.55
2018-03-23T09:58:59.726Z,100633.13
2018-03-23T10:01:28.070Z,100632.63
2018-03-23T10:03:56.443Z,100634.52
2018-03-23T10:06:24.765Z,100630.41
2018-03-23T10:08:53.091Z,100628.61
2018-03-23T10:11:21.818Z,100626.56
2018-03-23T10:13:50.138Z,100626.14
2018-03-23T10:16:18.461Z,100622.12
2018-03-23T10:18:47.569Z,100622.38
2018-03-23T10:21:15.882Z,100619.00
2018-03-23T10:23:44.207Z,100620.53
2018-03-23T10:26:12.660Z,100608.02
2018-03-23T10:28:41.053Z,100609.07
2018-03-23T10:31:09.393Z,100604.13
2018-03-23T10:33:37.936Z,100601.69
2018-03-23T10:36:07.082Z,100592.80
2018-03-23T10:38:35.457Z,100603.85
2018-03-23T10:41:03.839Z,100595.98
2018-03-23T10:43:32.261Z,100591.52
2018-03-23T10:46:00.597Z,100587.38
2018-03-23T10:48:28.969Z,100577.47
2018-03-23T10:50:57.346Z,100572.42
2018-03-23T10:53:25.675Z,100570.03
2018-03-23T10:55:55.322Z,100571.72
2018-03-23T10:58:23.625Z,100577.13
2018-03-23T11:00:57.401Z,100566.02
2018-03-23T11:03:25.766Z,100567.19
2018-03-23T11:05:54.888Z,100566.77
2018-03-23T11:08:24.150Z,100564.41
2018-03-23T11:10:53.297Z,100554.11
2018-03-23T11:13:21.675Z,100552.24
2018-03-23T11:15:50.151Z,100547.07
2018-03-23T11:18:18.486Z,100548.66
2018-03-23T11:20:46.838Z,100539.78
2018-03-23T11:23:15.267Z,100537.17
2018-03-23T11:25:43.701Z,100539.66
2018-03-23T11:28:12.065Z,100536.77
2018-03-23T11:30:40.448Z,100530.67
2018-03-23T11:33:08.795Z,100531.03
2018-03-23T11:35:37.195Z,100544.20
2018-03-23T11:38:05.630Z,100537.36
2018-03-23T11:40:33.956Z,100532.81
2018-03-23T11:43:02.309Z,100532.70
2018-03-23T11:45:30.656Z,100519.88
2018-03-23T11:47:59.002Z,100521.34
2018-03-23T11:50:27.320Z,100525.30
2018-03-23T11:52:56.429Z,100519.53
2018-03-23T11:55:25.508Z,100519.08
2018-03-23T11:57:54.628Z,100514.55
2018-03-23T12:00:23.396Z,100507.91
2018-03-23T12:02:51.718Z,100506.41
2018-03-23T12:05:20.083Z,100502.26
2018-03-23T12:07:48.441Z,100499.98
2018-03-23T12:10:16.833Z,100503.18
2018-03-23T12:12:45.175Z,100498.76
2018-03-23T12:15:13.559Z,100493.33
2018-03-23T12:17:42.665Z,100489.14
2018-03-23T12:20:11.761Z,100482.08
2018-03-23T12:22:41.378Z,100487.41
2018-03-23T12:25:09.741Z,100479.31
2018-03-23T12:27:38.100Z,100474.51
2018-03-23T12:30:06.445Z,100474.07
2018-03-23T12:32:34.884Z,100469.16
2018-03-23T12:35:03.237Z,100471.09
2018-03-23T12:37:31.865Z,100468.42
2018-03-23T12:40:00.224Z,100468.94
2018-03-23T12:42:28.559Z,100475.00
2018-03-23T12:44:57.316Z,100461.05
2018-03-23T12:47:25.655Z,100455.53
2018-03-23T12:49:53.988Z,100455.70
2018-03-23T12:52:22.404Z,100455.41
2018-03-23T12:54:50.748Z,100449.02
2018-03-23T12:57:19.073Z,100452.65
2018-03-23T12:59:48.210Z,100450.52
2018-03-23T13:02:16.540Z,100450.73
2018-03-23T13:04:44.888Z,100437.48
2018-03-23T13:07:13.637Z,100434.53
2018-03-23T13:09:41.954Z,100438.48
2018-03-23T13:12:10.302Z,100436.28
2018-03-23T13:14:39.433Z,100426.91
2018-03-23T13:17:07.832Z,100413.09
2018-03-23T13:19:36.261Z,100402.37
2018-03-23T13:22:04.643Z,100394.18
2018-03-23T13:24:32.978Z,100397.21
2018-03-23T13:27:01.337Z,100382.19
2018-03-23T13:29:30.542Z,100388.41
2018-03-23T13:31:58.914Z,100384.70
2018-03-23T13:34:27.287Z,100398.37
2018-03-23T13:36:55.709Z,100387.75
2018-03-23T13:39:24.015Z,100389.53
2018-03-23T13:41:52.432Z,100390.84
2018-03-23T13:44:20.802Z,100391.56
2018-03-23T13:46:49.144Z,100390.53
2018-03-23T13:49:17.497Z,100386.87
2018-03-23T13:51:46.255Z,100376.52
2018-03-23T13:54:14.574Z,100374.62
2018-03-23T13:56:42.950Z,100375.59
2018-03-23T13:59:16.706Z,100374.43
2018-03-23T14:01:45.099Z,100383.97
2018-03-23T14:04:13.492Z,100368.70
2018-03-23T14:06:41.891Z,100371.05
2018-03-23T14:09:10.229Z,100370.91
2018-03-23T14:11:38.640Z,100365.33
2018-03-23T14:14:07.196Z,100353.09
2018-03-23T14:16:35.575Z,100354.75
2018-03-23T14:19:03.920Z,100355.41
2018-03-23T14:21:33.069Z,100357.88
2018-03-23T14:24:01.420Z,100354.61
2018-03-23T14:26:29.751Z,100349.72
2018-03-23T14:28:58.117Z,100344.55
2018-03-23T14:31:26.440Z,100346.91
2018-03-23T14:33:54.786Z,100348.59
2018-03-23T14:36:23.308Z,100349.25
2018-03-23T14:38:51.622Z,100352.12
2018-03-23T14:41:19.981Z,100354.34
2018-03-23T14:43:48.341Z,100360.56
2018-03-23T14:46:16.754Z,100357.27
2018-03-23T14:48:45.109Z,100353.72
2018-03-23T14:51:13.466Z,100349.37
2018-03-23T14:53:42.584Z,100338.35
2018-03-23T14:56:10.906Z,100338.83
2018-03-23T14:58:44.786Z,100339.20
2018-03-23T15:01:13.086Z,100339.76
2018-03-23T15:03:41.400Z,100337.11
2018-03-23T15:06:10.531Z,100337.41
2018-03-23T15:08:38.886Z,100335.67
2018-03-23T15:11:08.105Z,100339.38
2018-03-23T15:13:36.468Z,100332.41
2018-03-23T15:16:04.807Z,100328.77
2018-03-23T15:18:33.144Z,100325.08
2018-03-23T15:21:01.898Z,100329.37
2018-03-23T15:23:30.314Z,100330.23
2018-03-23T15:25:58.635Z,100330.30
2018-03-23T15:28:27.002Z,100335.27
2018-03-23T15:30:55.349Z,100328.55
2018-03-23T15:33:23.781Z,100328.41
2018-03-23T15:35:52.921Z,100324.69
2018-03-23T15:38:21.293Z,100326.68
2018-03-23T15:40:49.603Z,100323.85
2018-03-23T15:43:18.099Z,100323.23
2018-03-23T15:45:46.447Z,100324.03
2018-03-23T15:48:14.815Z,100330.67
2018-03-23T15:50:43.149Z,100323.94
2018-03-23T15:53:12.279Z,100322.88
2018-03-23T15:55:40.600Z,100312.20
2018-03-23T15:58:08.942Z,100312.83
2018-03-23T16:00:37.255Z,100311.87
2018-03-23T16:03:05.553Z,100315.36
2018-03-23T16:05:33.972Z,100311.10
2018-03-23T16:08:02.306Z,100313.09
2018-03-23T16:10:30.640Z,100311.00
2018-03-23T16:12:59.056Z,100309.66
2018-03-23T16:15:27.440Z,100312.63
2018-03-23T16:17:55.802Z,100309.95
2018-03-23T16:20:24.137Z,100316.93
2018-03-23T16:22:52.468Z,100306.16
2018-03-23T16:25:20.820Z,100304.83
2018-03-23T16:27:49.346Z,100302.05
2018-03-23T16:30:17.660Z,100306.47
2018-03-23T16:32:45.988Z,100311.52
2018-03-23T16:35:14.331Z,100309.05
2018-03-23T16:37:42.674Z,100306.30
2018-03-23T16:40:11.819Z,100304.07
2018-03-23T16:42:40.193Z,100309.02
2018-03-23T16:45:08.552Z,100306.86
2018-03-23T16:47:36.881Z,100307.52
2018-03-23T16:50:05.505Z,100303.47
2018-03-23T16:52:34.666Z,100303.31
2018-03-23T16:55:02.981Z,100301.39
2018-03-23T16:57:32.075Z,100298.48
2018-03-23T17:00:00.456Z,100300.46
2018-03-23T17:02:29.556Z,100297.50
2018-03-23T17:04:58.704Z,100307.80
2018-03-23T17:07:27.006Z,100316.27
2018-03-23T17:09:55.370Z,100310.00
2018-03-23T17:12:24.068Z,100312.96
2018-03-23T17:14:52.444Z,100308.32
2018-03-23T17:17:20.997Z,100307.73
2018-03-23T17:19:49.353Z,100307.67
2018-03-23T17:22:17.762Z,100312.02
2018-03-23T17:24:46.168Z,100308.53
2018-03-23T17:27:14.542Z,100315.78
2018-03-23T17:29:42.894Z,100315.22
2018-03-23T17:32:11.275Z,100319.35
2018-03-23T17:34:39.744Z,100314.83
2018-03-23T17:37:08.100Z,100312.58
2018-03-23T17:39:36.438Z,100315.78
2018-03-23T17:42:04.805Z,100315.45
2018-03-23T17:44:33.233Z,100313.47
2018-03-23T17:47:01.574Z,100312.62
2018-03-23T17:49:30.577Z,100308.61
2018-03-23T17:51:58.927Z,100305.31
2018-03-23T17:54:27.250Z,100314.33
2018-03-23T17:56:56.602Z,100299.25
2018-03-23T17:59:24.945Z,100301.52
2018-03-23T18:01:53.268Z,100296.12
2018-03-23T18:04:21.637Z,100303.12
2018-03-23T18:06:49.959Z,100315.20
2018-03-23T18:09:18.294Z,100313.03
2018-03-23T18:11:47.442Z,100317.69
2018-03-23T18:14:15.767Z,100323.52
2018-03-23T18:16:44.125Z,100316.64
2018-03-23T18:19:13.220Z,100310.59
2018-03-23T18:21:41.547Z,100313.17
2018-03-23T18:24:09.992Z,100318.19
2018-03-23T18:26:38.381Z,100321.45
2018-03-23T18:29:06.765Z,100326.16
2018-03-23T18:31:35.117Z,100325.91
2018-03-23T18:34:03.465Z,100326.09
2018-03-23T18:36:31.814Z,100333.27
2018-03-23T18:39:00.209Z,100331.27
2018-03-23T18:41:28.936Z,100326.94
2018-03-23T18:43:57.246Z,100327.30
2018-03-23T18:46:25.585Z,100330.43
2018-03-23T18:48:54.716Z,100332.13
2018-03-23T18:51:23.476Z,100332.70
2018-03-23T18:53:51.811Z,100332.19
2018-03-23T18:56:20.137Z,100329.16
2018-03-23T18:58:48.509Z,100329.25
2018-03-23T19:01:16.885Z,100328.34
2018-03-23T19:03:45.358Z,100327.29
2018-03-23T19:06:14.474Z,100324.75
2018-03-23T19:08:42.789Z,100333.55
2018-03-23T19:11:11.122Z,100332.68
2018-03-23T19:13:40.214Z,100329.05
2018-03-23T19:16:09.308Z,100331.48
2018-03-23T19:18:37.653Z,100327.18
2018-03-23T19:21:06.361Z,100337.76
2018-03-23T19:23:34.699Z,100345.05
2018-03-23T19:26:03.420Z,100334.38
2018-03-23T19:28:31.797Z,100331.35
2018-03-23T19:31:00.114Z,100338.83
2018-03-23T19:33:28.484Z,100330.72
2018-03-23T19:35:56.867Z,100334.14
2018-03-23T19:38:25.231Z,100332.02
2018-03-23T19:40:53.616Z,100324.57
2018-03-23T19:43:22.726Z,100335.22
2018-03-23T19:45:51.068Z,100335.36
2018-03-23T19:48:19.808Z,100330.06
2018-03-23T19:50:48.201Z,100332.56
2018-03-23T19:53:16.549Z,100323.09
2018-03-23T19:55:44.951Z,100331.55
2018-03-23T19:58:13.304Z,100328.28
2018-03-23T20:00:41.638Z,100326.47
2018-03-23T20:03:09.981Z,100328.91
2018-03-23T20:05:38.319Z,100318.98
2018-03-23T20:08:07.426Z,100322.57
2018-03-23T20:10:36.687Z,100321.75
2018-03-23T20:13:05.001Z,100318.55
2018-03-23T20:15:34.116Z,100311.84
2018-03-23T20:18:07.873Z,100324.20
2018-03-23T20:20:41.629Z,100317.05
2018-03-23T20:23:09.997Z,100319.67
2018-03-23T20:25:38.505Z,100319.13
2018-03-23T20:28:12.801Z,100319.75
2018-03-23T20:30:41.131Z,100318.91
2018-03-23T20:33:09.503Z,100319.31
2018-03-23T20:35:37.882Z,100310.31
2018-03-23T20:38:06.235Z,100315.92
2018-03-23T20:40:35.539Z,100315.78
2018-03-23T20:43:03.943Z,100317.20
2018-03-23T20:45:32.319Z,100312.28
2018-03-23T20:48:00.700Z,100309.88
2018-03-23T20:50:29.152Z,100310.33
2018-03-23T20:52:57.491Z,100299.36
2018-03-23T20:55:25.835Z,100297.80
2018-03-23T20:57:54.237Z,100300.32
2018-03-23T21:00:22.591Z,100299.41
2018-03-23T21:02:50.947Z,100298.55
2018-03-23T21:05:19.290Z,100300.46
2018-03-23T21:07:47.616Z,100300.55
2018-03-23T21:10:15.958Z,100302.38
2018-03-23T21:12:45.149Z,100301.27
2018-03-23T21:15:13.466Z,100308.30
2018-03-23T21:17:41.781Z,100308.94
2018-03-23T21:20:10.160Z,100311.73
2018-03-23T21:22:38.479Z,100307.94
2018-03-23T21:25:06.825Z,100305.47
2018-03-23T21:27:35.995Z,100316.15
2018-03-23T21:30:04.348Z,100308.62
2018-03-23T21:32:32.677Z,100314.08
2018-03-23T21:35:01.694Z,100308.05
2018-03-23T21:37:30.044Z,100303.08
2018-03-23T21:39:58.440Z,100305.86
2018-03-23T21:42:26.807Z,100307.31
2018-03-23T21:44:55.176Z,100300.06
2018-03-23T21:47:23.508Z,100297.77
2018-03-23T21:49:51.939Z,100303.61
2018-03-23T21:52:20.249Z,100303.13
2018-03-23T21:54:49.325Z,100303.56
2018-03-23T21:57:17.999Z,100302.66
2018-03-23T21:59:46.336Z,100310.17
2018-03-23T22:02:14.730Z,100303.01
2018-03-23T22:04:43.141Z,100294.63
2018-03-23T22:07:11.453Z,100297.58
2018-03-23T22:09:40.512Z,100301.59
2018-03-23T22:12:08.870Z,100302.55
2018-03-23T22:14:37.262Z,100304.77
2018-03-23T22:17:05.649Z,100295.94
2018-03-23T22:19:34.210Z,100300.66
2018-03-23T22:22:02.538Z,100297.98
2018-03-23T22:24:31.676Z,100304.73
2018-03-23T22:27:00.015Z,100312.41
2018-03-23T22:29:28.355Z,100302.47
2018-03-23T22:31:56.763Z,100295.48
2018-03-23T22:34:25.090Z,100302.07
2018-03-23T22:36:53.394Z,100294.91
2018-03-23T22:39:21.747Z,100299.89
2018-03-23T22:41:50.147Z,100306.64
2018-03-23T22:44:18.576Z,100302.72
2018-03-23T22:46:46.931Z,100304.14
2018-03-23T22:49:16.078Z,100299.38
2018-03-23T22:51:44.418Z,100301.69
2018-03-23T22:54:12.754Z,100296.42
2018-03-23T22:56:41.100Z,100297.48
2018-03-23T22:59:09.477Z,100298.19
2018-03-23T23:01:37.775Z,100300.78
2018-03-23T23:04:06.213Z,100294.70
2018-03-23T23:06:34.526Z,100296.07
2018-03-23T23:09:02.834Z,100290.36
2018-03-23T23:11:31.501Z,100290.00
2018-03-23T23:13:59.932Z,100285.32
2018-03-23T23:16:28.306Z,100286.30
2018-03-23T23:18:57.435Z,100287.00
2018-03-23T23:21:25.807Z,100285.70
2018-03-23T23:23:54.113Z,100290.78
2018-03-23T23:26:22.804Z,100280.28
2018-03-23T23:28:51.178Z,100280.06
2018-03-23T23:31:19.552Z,100277.78
2018-03-23T23:33:48.003Z,100277.05
2018-03-23T23:36:16.380Z,100279.08
2018-03-23T23:38:45.484Z,100283.56
2018-03-23T23:41:13.843Z,100274.31
2018-03-23T23:43:42.956Z,100280.34
2018-03-23T23:46:11.296Z,100278.77
2018-03-23T23:48:39.726Z,100278.20
2018-03-23T23:51:08.130Z,100278.52
2018-03-23T23:53:36.489Z,100281.42
2018-03-23T23:56:04.852Z,100279.75
2018-03-23T23:58:34.385Z,100276.75
